Flight Track Log - Related Links

Times and Time Zones

All times are in EDT time to prevent confusion due to time zone crossing. See the N68C flight status page for this flight to view local times or setup timezone preferences in your user account.

Time Position Orientation Groundspeed Altitude Reporting Facility
EDT Latitude Longitude Course Direction KTS MPH feet Rate Location/Type
Tue 13:29:00 32.2968 -82.4801 320° Northwest  Level FlightAware Approximate
Tue 13:30:00 32.3252 -82.5085 320° Northwest  Level FlightAware Approximate
Tue 13:36:40 32.3183 -82.5214 320° Northwest 127 146 4,500  Level Jacksonville Center
Tue 13:37:40 32.3414 -82.5458 318° Northwest 116 133 5,200 605 Climbing Jacksonville Center
Tue 13:38:39 32.3644 -82.5681 321° Northwest 110 127 5,700 444 Climbing Jacksonville Center
Tue 13:39:28 32.3831 -82.5878 318° Northwest 111 128 6,000 440 Climbing Atlanta Center
Tue 13:40:28 32.4061 -82.6094 322° Northwest 111 128 6,500 500 Climbing Atlanta Center
Tue 13:41:28 32.4317 -82.6386 316° Northwest 120 138 7,000 500 Climbing Atlanta Center
Tue 13:42:28 32.4589 -82.6553 333° Northwest 120 138 7,500 450 Climbing Atlanta Center
Tue 13:43:28 32.4864 -82.6772 326° Northwest 115 132 7,900 250 Climbing Atlanta Center
Tue 13:44:28 32.5136 -82.6989 326° Northwest 115 132 8,000 33 Climbing Atlanta Center
Tue 13:46:28 32.5811 -82.7544 325° Northwest 137 158 8,000  Level Atlanta Center
Tue 13:47:28 32.6128 -82.7836 322° Northwest 137 158 8,000  Level Atlanta Center
Tue 13:48:28 32.6442 -82.8103 324° Northwest 137 158 8,000  Level Atlanta Center
Tue 13:49:28 32.6717 -82.8394 318° Northwest 137 158 8,000  Level Atlanta Center
Tue 13:51:31 32.7333 -82.9000 320° Northwest 143 165 8,000  Level Atlanta TRACON
Tue 13:52:25 32.7667 -82.9333 320° Northwest 140 161 8,000  Level Atlanta TRACON
Tue 13:53:25 32.8000 -82.9500 337° Northwest 142 163 8,000  Level Atlanta TRACON
Tue 13:54:25 32.8167 -82.9833 301° West 138 159 8,000  Level Atlanta TRACON
Tue 13:55:25 32.8500 -83.0167 320° Northwest 142 163 8,000  Level Atlanta TRACON
Tue 13:56:25 32.8833 -83.0500 320° Northwest 145 167 8,000  Level Atlanta TRACON
Tue 13:57:25 32.9167 -83.0667 337° Northwest 142 163 8,000  Level Atlanta TRACON
Tue 13:58:25 32.9500 -83.1000 320° Northwest 143 165 8,000  Level Atlanta TRACON
Tue 13:59:31 32.9833 -83.1333 320° Northwest 146 168 8,000  Level Atlanta TRACON
Tue 14:00:25 33.0167 -83.1500 337° Northwest 144 166 8,000  Level Atlanta TRACON
Tue 14:01:25 33.0500 -83.1667 337° Northwest 143 165 8,000  Level Atlanta TRACON
Tue 14:02:31 33.1000 -83.2000 331° Northwest 147 169 8,000  Level Atlanta TRACON
Tue 14:03:25 33.1333 -83.2167 337° Northwest 147 169 8,000  Level Atlanta TRACON
Tue 14:04:25 33.1667 -83.2333 337° Northwest 149 171 8,000 -48 Level Atlanta TRACON
Tue 14:05:31 33.2000 -83.2500 337° Northwest 146 168 7,900 -238 Descending Atlanta TRACON
Tue 14:06:31 33.2333 -83.2833 320° Northwest 151 174 7,500 -350 Descending Atlanta TRACON
Tue 14:07:31 33.2667 -83.3000 337° Northwest 147 169 7,200 -368 Descending Atlanta TRACON
Tue 14:08:25 33.3000 -83.3333 320° Northwest 146 168 6,800 -421 Descending Atlanta TRACON
Tue 14:09:25 33.3500 -83.3500 344° North 154 177 6,400 -350 Descending Atlanta TRACON
Tue 14:10:25 33.3833 -83.3833 320° Northwest 147 169 6,100 -333 Descending Atlanta TRACON
Tue 14:11:31 33.4167 -83.4167 320° Northwest 149 171 5,700 -286 Descending Atlanta TRACON
Tue 14:12:31 33.4500 -83.4500 320° Northwest 147 169 5,500 -350 Descending Atlanta TRACON
Tue 14:13:31 33.4833 -83.4667 337° Northwest 149 171 5,000 -450 Descending Atlanta TRACON
Tue 14:14:31 33.5000 -83.5167 292° West 147 169 4,600 -400 Descending Atlanta TRACON
Tue 14:15:31 33.5333 -83.5333 337° Northwest 146 168 4,200 -316 Descending Atlanta TRACON
Tue 14:16:25 33.5667 -83.5667 320° Northwest 143 165 4,000 -100 Descending Atlanta TRACON
Tue 14:17:31 33.6000 -83.6000 320° Northwest 135 155 4,000  Level Atlanta TRACON
Tue 14:18:31 33.6333 -83.6167 337° Northwest 134 154 4,000  Level Atlanta TRACON
Tue 14:19:32 33.6500 -83.6500 301° West 134 154 4,000  Level Atlanta TRACON
Tue 14:21:00 33.6874 -83.6852 322° Northwest  Level FlightAware Approximate
Tue 14:21:32 33.7333 -83.6833 322° Northwest 140 161 4,000  Level Atlanta TRACON
Tue 14:23:31 33.8000 -83.7333 328° Northwest 138 159 4,000  Level Atlanta TRACON
Tue 14:25:00 33.8327 -83.7757 313° West  Level FlightAware Approximate
Tue 14:26:32 33.8833 -83.8000 313° West 132 152 4,000  Level Atlanta TRACON
Tue 14:27:32 33.9167 -83.8333 320° Northwest 155 178 3,300 -750 Descending Atlanta TRACON
Tue 14:28:32 33.9333 -83.8833 292° West 166 191 2,500 -800 Descending Atlanta TRACON
Tue 14:29:32 33.9667 -83.9167 320° Northwest 158 182 1,700 -800 Descending Atlanta TRACON
Tue 14:31:00 33.9667 -83.9500 322° Northwest  Level FlightAware Approximate
Tue 14:38:00 33.9781 -83.9624 322° Northwest  Level Estimated
Tue 14:39:00 33.9781 -83.9624 322° Northwest  Level Estimated

Login

Don't have an account? Register now (free) for customized features, flight alerts, and more!